Time;durP1;ratioP1;P1;durP2;ratioP2;P2;SDS_P1;SDS_P2;PMS_P1;PMS_P2;Temp;Humidity;BMP_temperature;BMP_pressure;BME280_temperature;BME280_humidity;BME280_pressure;Samples;Min_cycle;Max_cycle;Signal;HPM_P1;HPM_P2
2021/04/16 00:01:33;;;;;;;9.40;8.40;;;;;;;;;;4864073;28;20198;-74
2021/04/16 00:03:56;;;;;;;9.20;8.27;;;;;;;;;;4872590;28;20725;-75
2021/04/16 00:06:18;;;;;;;10.43;9.33;;;;;;;;;;4859465;28;20271;-77
2021/04/16 00:08:41;;;;;;;10.33;9.23;;;2.90;52.50;;;;;;4869060;28;20218;-74
2021/04/16 00:11:09;;;;;;;10.73;9.63;;;2.90;50.70;;;;;;4848581;28;20190;-76
2021/04/16 00:13:31;;;;;;;10.03;8.57;;;;;;;;;;4841711;28;20190;-79
2021/04/16 00:15:54;;;;;;;10.93;9.43;;;;;;;;;;4841465;28;20233;-75
2021/04/16 00:18:19;;;;;;;10.83;9.27;;;2.80;58.80;;;;;;4859295;28;20190;-74
2021/04/16 00:20:42;;;;;;;9.80;8.20;;;2.90;86.70;;;;;;4860512;28;20208;-75
2021/04/16 00:23:05;;;;;;;9.70;8.43;;;2.80;65.70;;;;;;4860115;28;20801;-74
2021/04/16 00:25:30;;;;;;;9.67;8.63;;;2.80;62.90;;;;;;4860174;28;20683;-76
2021/04/16 00:27:53;;;;;;;9.37;8.37;;;2.80;60.60;;;;;;4860177;28;20225;-73
2021/04/16 00:30:16;;;;;;;9.17;8.27;;;2.80;60.00;;;;;;4866713;28;20229;-75
2021/04/16 00:32:39;;;;;;;9.67;8.67;;;;;;;;;;4841177;28;20252;-75
2021/04/16 00:35:01;;;;;;;10.20;8.47;;;;;;;;;;4877321;28;20189;-74
2021/04/16 00:37:24;;;;;;;9.53;8.53;;;;;;;;;;4868831;28;20224;-75
2021/04/16 00:39:46;;;;;;;11.10;8.90;;;;;;;;;;4859338;28;20197;-77
2021/04/16 00:42:12;;;;;;;10.63;9.00;;;2.80;56.90;;;;;;4859805;28;20252;-76
2021/04/16 00:44:34;;;;;;;10.73;8.90;;;;;;;;;;4860344;28;20189;-75
2021/04/16 00:47:02;;;;;;;10.70;9.17;;;2.80;62.40;;;;;;4865825;28;20262;-75
2021/04/16 00:49:27;;;;;;;11.20;8.73;;;2.80;65.30;;;;;;4867241;28;20652;-75
2021/04/16 00:51:54;;;;;;;10.80;8.93;;;2.80;68.70;;;;;;4871180;28;20220;-75
2021/04/16 00:54:19;;;;;;;11.73;9.37;;;2.80;71.10;;;;;;4867991;28;20257;-75
2021/04/16 00:56:41;;;;;;;9.93;8.73;;;;;;;;;;4863775;28;20190;-75
2021/04/16 00:59:04;;;;;;;10.73;9.27;;;2.80;78.80;;;;;;4877384;28;20181;-74
2021/04/16 01:01:27;;;;;;;9.37;8.33;;;;;;;;;;4866213;28;20185;-74
2021/04/16 01:03:49;;;;;;;11.00;9.60;;;;;;;;;;4876350;28;20895;-79
2021/04/16 01:06:12;;;;;;;11.03;8.63;;;2.80;88.80;;;;;;4858624;28;20218;-76
2021/04/16 01:08:35;;;;;;;11.50;9.70;;;2.80;89.60;;;;;;4859366;28;20255;-75
2021/04/16 01:10:57;;;;;;;10.63;9.50;;;;;;;;;;4858299;28;20587;-75
2021/04/16 01:13:20;;;;;;;10.77;9.43;;;2.80;85.80;;;;;;4858073;28;20255;-75
2021/04/16 01:15:52;;;;;;;12.70;10.20;;;2.80;86.20;;;;;;4859632;28;20190;-78
2021/04/16 01:18:17;;;;;;;12.73;10.27;;;2.70;87.70;;;;;;4859099;28;20182;-78
2021/04/16 01:20:42;;;;;;;14.37;10.00;;;2.70;86.50;;;;;;4859080;28;20186;-76
2021/04/16 01:23:11;;;;;;;13.27;10.27;;;2.70;87.30;;;;;;4859488;28;20248;-77
2021/04/16 01:25:35;;;;;;;10.50;8.73;;;2.70;90.50;;;;;;4858122;28;20240;-79
2021/04/16 01:27:57;;;;;;;10.83;9.30;;;;;;;;;;4858345;28;20237;-75
2021/04/16 01:30:23;;;;;;;13.03;10.13;;;2.70;88.90;;;;;;4877241;28;20185;-76
2021/04/16 01:32:46;;;;;;;11.07;9.13;;;;;;;;;;4872790;28;20190;-77
2021/04/16 01:35:10;;;;;;;12.07;9.43;;;2.70;92.90;;;;;;4861880;28;20235;-76
2021/04/16 01:37:32;;;;;;;10.40;8.70;;;;;;;;;;4867657;28;20186;-74
2021/04/16 01:39:55;;;;;;;12.00;9.87;;;;;;;;;;4859203;28;20245;-76
2021/04/16 01:42:18;;;;;;;12.53;9.83;;;2.70;94.90;;;;;;4858948;28;20240;-75
2021/04/16 01:44:44;;;;;;;11.97;9.80;;;2.60;96.00;;;;;;4867267;28;20251;-75
2021/04/16 01:47:09;;;;;;;12.63;10.20;;;2.60;97.40;;;;;;4870451;28;20214;-74
2021/04/16 01:49:33;;;;;;;13.50;10.53;;;2.60;98.70;;;;;;4876026;28;20603;-75
2021/04/16 01:51:55;;;;;;;11.87;9.70;;;;;;;;;;4867418;28;20585;-77
2021/04/16 01:54:20;;;;;;;11.60;9.60;;;2.70;99.90;;;;;;4858547;28;20216;-76
2021/04/16 01:56:45;;;;;;;10.10;8.77;;;2.70;99.90;;;;;;4858688;28;20596;-76
2021/04/16 01:59:09;;;;;;;12.77;9.07;;;2.60;99.90;;;;;;4859058;28;20194;-77
2021/04/16 02:01:32;;;;;;;11.17;9.10;;;;;;;;;;4856466;28;20256;-76
2021/04/16 02:03:55;;;;;;;10.50;8.47;;;;;;;;;;4858442;28;20186;-76
2021/04/16 02:06:17;;;;;;;8.87;7.90;;;;;;;;;;4858410;28;20683;-75
2021/04/16 02:08:39;;;;;;;9.57;8.57;;;;;;;;;;4876668;28;20216;-79
2021/04/16 02:11:01;;;;;;;10.93;9.17;;;;;;;;;;4871267;28;20197;-75
2021/04/16 02:13:24;;;;;;;8.67;7.57;;;;;;;;;;4858725;28;20650;-76
2021/04/16 02:15:47;;;;;;;9.07;7.50;;;2.60;99.90;;;;;;4857896;28;20276;-75
2021/04/16 02:18:09;;;;;;;11.00;8.27;;;;;;;;;;4864426;28;20600;-80
2021/04/16 02:20:32;;;;;;;9.00;7.53;;;;;;;;;;4858346;28;20255;-75
2021/04/16 02:22:54;;;;;;;9.50;8.00;;;;;;;;;;4854933;28;20240;-75
2021/04/16 02:25:16;;;;;;;8.93;8.03;;;;;;;;;;4858369;28;20186;-76
2021/04/16 02:27:38;;;;;;;8.03;7.23;;;;;;;;;;4866547;28;20788;-77
2021/04/16 02:30:01;;;;;;;8.77;7.50;;;;;;;;;;4857885;28;20251;-78
2021/04/16 02:32:24;;;;;;;7.83;6.73;;;2.50;96.90;;;;;;4857185;28;20208;-79
2021/04/16 02:34:46;;;;;;;8.97;7.47;;;;;;;;;;4863481;28;21147;-76
2021/04/16 02:37:11;;;;;;;9.03;7.43;;;2.50;94.70;;;;;;4859721;28;20236;-77
2021/04/16 02:39:34;;;;;;;9.27;7.67;;;;;;;;;;4858583;28;20189;-77
2021/04/16 02:41:56;;;;;;;7.17;6.47;;;2.40;91.50;;;;;;4858066;28;20181;-77
2021/04/16 02:44:20;;;;;;;8.13;6.47;;;2.40;91.70;;;;;;4873890;28;20181;-77
2021/04/16 02:46:42;;;;;;;6.70;6.00;;;;;;;;;;4864911;28;20648;-77
2021/04/16 02:49:06;;;;;;;7.30;6.50;;;2.40;91.90;;;;;;4856950;28;20229;-77
2021/04/16 02:51:29;;;;;;;7.93;6.87;;;2.40;91.90;;;;;;4857840;28;20201;-77
2021/04/16 02:53:51;;;;;;;8.57;7.00;;;;;;;;;;4857631;28;20236;-77
2021/04/16 02:56:13;;;;;;;6.83;6.07;;;;;;;;;;4858264;28;20275;-76
2021/04/16 02:58:35;;;;;;;6.90;6.20;;;;;;;;;;4856227;28;20750;-76
2021/04/16 03:00:57;;;;;;;7.10;6.33;;;;;;;;;;4855825;28;20710;-76
2021/04/16 03:03:20;;;;;;;6.37;5.77;;;;;;;;;;4857666;28;20600;-75
2021/04/16 03:05:43;;;;;;;6.77;6.03;;;2.40;81.70;;;;;;4867552;28;20264;-76
2021/04/16 03:08:05;;;;;;;6.63;5.67;;;;;;;;;;4858485;28;20218;-75
2021/04/16 03:10:30;;;;;;;6.53;5.80;;;2.40;83.00;;;;;;4857423;28;20198;-77
2021/04/16 03:12:52;;;;;;;6.63;5.93;;;;;;;;;;4857399;28;20266;-75
2021/04/16 03:15:18;;;;;;;6.03;5.50;;;2.40;86.80;;;;;;4871046;28;20567;-76
2021/04/16 03:17:40;;;;;;;5.40;4.47;;;;;;;;;;4838683;28;20641;-78
2021/04/16 03:20:03;;;;;;;6.77;5.80;;;2.40;98.80;;;;;;4864324;28;20190;-76
2021/04/16 03:22:26;;;;;;;6.37;5.77;;;2.40;90.20;;;;;;4859692;28;21204;-76
2021/04/16 03:24:49;;;;;;;6.47;5.87;;;;;;;;;;4866032;28;20259;-76
2021/04/16 03:27:11;;;;;;;7.47;6.57;;;;;;;;;;4860291;28;20766;-76
2021/04/16 03:29:33;;;;;;;6.60;5.83;;;;;;;;;;4874874;28;20597;-77
2021/04/16 03:31:55;;;;;;;6.30;5.70;;;;;;;;;;4874772;28;20227;-78
2021/04/16 03:34:17;;;;;;;6.97;5.83;;;2.40;97.90;;;;;;4875013;28;20197;-77
2021/04/16 03:36:39;;;;;;;7.50;6.73;;;2.30;98.30;;;;;;4869601;28;20193;-77
2021/04/16 03:39:03;;;;;;;7.20;6.43;;;2.30;87.50;;;;;;4858287;28;20190;-77
2021/04/16 03:41:26;;;;;;;7.20;6.30;;;;;;;;;;4856397;28;20267;-77
2021/04/16 03:43:48;;;;;;;6.83;6.13;;;;;;;;;;4867244;28;20238;-76
2021/04/16 03:46:10;;;;;;;7.67;6.50;;;;;;;;;;4869315;28;20244;-75
2021/04/16 03:48:33;;;;;;;8.17;7.30;;;;;;;;;;4857255;28;20225;-76
2021/04/16 03:50:55;;;;;;;6.63;5.93;;;;;;;;;;4856383;28;20541;-76
2021/04/16 03:53:17;;;;;;;6.90;6.20;;;;;;;;;;4866545;28;20193;-77
2021/04/16 03:55:40;;;;;;;8.27;7.23;;;2.30;85.10;;;;;;4858236;28;20182;-76
2021/04/16 03:58:03;;;;;;;7.57;6.53;;;2.30;87.70;;;;;;4858424;28;20206;-76
2021/04/16 04:00:30;;;;;;;8.17;7.07;;;2.30;90.20;;;;;;4860813;28;20189;-77
2021/04/16 04:02:53;;;;;;;6.83;6.13;;;2.30;90.40;;;;;;4857187;28;20174;-78
2021/04/16 04:05:16;;;;;;;7.97;6.33;;;2.30;91.50;;;;;;4858320;28;20594;-75
2021/04/16 04:07:38;;;;;;;6.73;6.03;;;;;;;;;;4837747;28;20596;-76
2021/04/16 04:10:01;;;;;;;7.90;7.03;;;;;;;;;;4862063;28;20677;-77
2021/04/16 04:12:24;;;;;;;7.60;6.73;;;2.30;94.20;;;;;;4856722;28;20591;-76
2021/04/16 04:14:46;;;;;;;7.53;6.70;;;;;;;;;;4856643;28;20190;-75
2021/04/16 04:17:09;;;;;;;7.47;6.67;;;2.30;96.60;;;;;;4875282;28;20532;-76
2021/04/16 04:19:33;;;;;;;7.73;6.77;;;2.30;95.80;;;;;;4874393;28;20212;-77
2021/04/16 04:21:56;;;;;;;8.27;7.33;;;2.30;94.20;;;;;;4847768;28;20582;-77
2021/04/16 04:24:19;;;;;;;9.03;7.57;;;2.40;94.00;;;;;;4857975;28;20731;-76
2021/04/16 04:26:42;;;;;;;7.60;6.37;;;;;;;;;;4867613;28;20696;-77
2021/04/16 04:29:05;;;;;;;7.63;6.87;;;2.30;94.20;;;;;;4860271;28;20214;-75
2021/04/16 04:31:27;;;;;;;8.50;7.13;;;;;;;;;;4859947;28;20210;-76
2021/04/16 04:33:49;;;;;;;8.30;7.20;;;;;;;;;;4841109;28;20253;-76
2021/04/16 04:36:12;;;;;;;7.80;7.00;;;;;;;;;;4862499;28;20194;-76
2021/04/16 04:38:34;;;;;;;7.93;7.10;;;;;;;;;;4860234;28;20316;-77
2021/04/16 04:40:57;;;;;;;7.97;7.03;;;;;;;;;;4870192;28;20193;-76
2021/04/16 04:43:19;;;;;;;7.67;6.87;;;;;;;;;;4879496;28;20186;-75
2021/04/16 04:45:42;;;;;;;8.10;7.23;;;2.60;91.80;;;;;;4874560;28;20197;-77
2021/04/16 04:48:04;;;;;;;7.83;6.97;;;2.60;86.90;;;;;;4877867;28;20213;-76
2021/04/16 04:50:27;;;;;;;9.53;7.10;;;;;;;;;;4872266;28;20530;-76
2021/04/16 04:52:49;;;;;;;7.40;6.57;;;;;;;;;;4859570;28;20248;-75
2021/04/16 04:55:15;;;;;;;6.93;6.20;;;3.00;88.90;;;;;;4863742;28;20197;-77
2021/04/16 04:57:37;;;;;;;7.53;6.53;;;;;;;;;;4879221;28;20189;-77
2021/04/16 04:59:59;;;;;;;8.60;7.20;;;;;;;;;;4875676;28;20588;-76
2021/04/16 05:02:24;;;;;;;7.93;6.70;;;2.60;57.20;;;;;;4872666;28;20240;-77
2021/04/16 05:04:47;;;;;;;7.03;6.33;;;;;;;;;;4877472;28;20614;-77
2021/04/16 05:07:09;;;;;;;8.10;6.80;;;;;;;;;;4859915;28;20186;-76
2021/04/16 05:09:31;;;;;;;7.30;6.43;;;;;;;;;;4870388;28;20217;-75
2021/04/16 05:11:53;;;;;;;8.63;7.23;;;;;;;;;;4878372;28;20268;-76
2021/04/16 05:14:16;;;;;;;8.67;7.27;;;;;;;;;;4859805;28;20189;-78
2021/04/16 05:16:38;;;;;;;9.17;7.80;;;;;;;;;;4849376;28;20603;-76
2021/04/16 05:19:02;;;;;;;10.57;8.80;;;2.70;29.00;;;;;;4843472;28;20194;-75
2021/04/16 05:21:25;;;;;;;8.90;7.60;;;;;;;;;;4860665;28;20194;-75
2021/04/16 05:23:48;;;;;;;10.13;7.87;;;;;;;;;;4858945;28;20236;-77
2021/04/16 05:26:11;;;;;;;10.27;8.50;;;;;;;;;;4858007;28;20280;-76
2021/04/16 05:28:33;;;;;;;11.07;8.57;;;;;;;;;;4864745;28;20687;-78
2021/04/16 05:30:55;;;;;;;9.93;7.87;;;;;;;;;;4864763;28;20198;-77
2021/04/16 05:33:18;;;;;;;9.73;8.73;;;;;;;;;;4859863;28;20248;-78
2021/04/16 05:35:40;;;;;;;10.20;8.50;;;2.70;1.00;;;;;;4867304;28;20659;-76
2021/04/16 05:38:03;;;;;;;8.93;7.33;;;;;;;;;;4858678;28;20706;-76
2021/04/16 05:40:25;;;;;;;8.63;7.53;;;;;;;;;;4858553;28;20724;-75
2021/04/16 05:42:47;;;;;;;8.87;7.53;;;;;;;;;;4858580;28;20552;-77
2021/04/16 05:45:10;;;;;;;9.43;7.73;;;2.10;1.00;;;;;;4873124;28;20220;-77
2021/04/16 05:47:33;;;;;;;9.73;7.97;;;;;;;;;;4877415;28;20193;-76
2021/04/16 05:49:55;;;;;;;7.93;7.13;;;;;;;;;;4877340;28;20209;-75
2021/04/16 05:52:18;;;;;;;8.03;7.23;;;2.80;1.00;;;;;;4865360;28;20238;-76
2021/04/16 05:54:40;;;;;;;8.17;7.37;;;;;;;;;;4878174;28;20279;-76
2021/04/16 05:57:03;;;;;;;7.87;6.90;;;;;;;;;;4868932;28;20239;-76
2021/04/16 05:59:25;;;;;;;9.43;8.03;;;;;;;;;;4874568;28;20250;-76
2021/04/16 06:01:47;;;;;;;8.50;7.60;;;;;;;;;;4855595;28;20669;-76
2021/04/16 06:04:18;;;;;;;10.77;8.53;;;3.00;1.00;;;;;;4858815;28;20208;-76
2021/04/16 06:06:40;;;;;;;8.37;7.57;;;;;;;;;;4857212;28;20229;-77
2021/04/16 06:09:03;;;;;;;8.30;7.13;;;3.00;1.00;;;;;;4861131;28;20271;-77
2021/04/16 06:11:26;;;;;;;8.73;7.63;;;;;;;;;;4864905;28;20193;-76
2021/04/16 06:13:48;;;;;;;8.30;7.23;;;;;;;;;;4857904;28;20259;-76
2021/04/16 06:16:10;;;;;;;8.37;7.20;;;3.00;1.00;;;;;;4859242;28;20186;-75
2021/04/16 06:18:33;;;;;;;9.43;8.07;;;3.00;1.00;;;;;;4862090;28;20328;-76
2021/04/16 06:20:55;;;;;;;10.03;8.00;;;3.00;1.00;;;;;;4865395;28;20243;-75
2021/04/16 06:23:18;;;;;;;7.73;7.03;;;;;;;;;;4877601;28;20266;-74
2021/04/16 06:25:40;;;;;;;7.47;6.67;;;3.00;1.00;;;;;;4866286;28;20189;-73
2021/04/16 06:28:04;;;;;;;8.33;7.43;;;3.10;1.00;;;;;;4855859;28;20624;-76
2021/04/16 06:30:27;;;;;;;8.53;7.33;;;3.00;1.00;;;;;;4867206;28;20185;-75
2021/04/16 06:33:00;;;;;;;8.13;7.33;;;3.20;1.00;;;;;;4875142;28;20577;-75
2021/04/16 06:35:22;;;;;;;8.43;7.60;;;;;;;;;;4859187;28;20182;-75
2021/04/16 06:37:45;;;;;;;7.40;6.70;;;;;;;;;;4857920;28;20243;-76
2021/04/16 06:40:08;;;;;;;7.70;6.97;;;3.40;1.00;;;;;;4862051;28;20202;-76
2021/04/16 06:42:33;;;;;;;7.13;6.43;;;3.50;1.00;;;;;;4861845;28;20189;-75
2021/04/16 06:44:58;;;;;;;7.43;6.70;;;3.50;1.00;;;;;;4858675;28;20186;-75
2021/04/16 06:47:25;;;;;;;7.63;6.57;;;3.60;1.00;;;;;;4872686;28;20243;-76
2021/04/16 06:49:48;;;;;;;6.57;5.90;;;3.60;1.00;;;;;;4860203;28;20217;-75
2021/04/16 06:52:15;;;;;;;7.63;6.83;;;3.60;1.00;;;;;;4856990;28;20194;-76
2021/04/16 06:54:48;;;;;;;7.70;6.90;;;3.80;1.00;;;;;;4857254;28;20606;-75
2021/04/16 06:57:30;;;;;;;8.33;6.93;;;3.70;1.00;;;;;;4854401;28;20186;-76
2021/04/16 07:00:00;;;;;;;7.27;6.57;;;3.70;1.00;;;;;;4857730;28;20178;-74
2021/04/16 07:02:30;;;;;;;6.80;6.17;;;3.80;1.00;;;;;;4856064;28;20656;-74
2021/04/16 07:04:57;;;;;;;7.47;6.57;;;3.60;1.00;;;;;;4857463;28;20218;-74
2021/04/16 07:07:24;;;;;;;7.37;6.67;;;3.60;1.00;;;;;;4857991;28;20194;-76
2021/04/16 07:09:50;;;;;;;7.30;6.47;;;3.60;1.00;;;;;;4857673;28;20214;-76
2021/04/16 07:12:15;;;;;;;6.97;6.37;;;3.60;1.00;;;;;;4857829;28;20186;-76
2021/04/16 07:14:41;;;;;;;6.47;5.80;;;3.50;1.00;;;;;;4857811;28;20621;-75
2021/04/16 07:17:06;;;;;;;6.47;5.80;;;3.60;1.00;;;;;;4857533;28;20228;-74
2021/04/16 07:19:28;;;;;;;6.60;5.87;;;3.50;99.90;;;;;;4857717;28;20186;-75
2021/04/16 07:21:57;;;;;;;6.00;5.40;;;3.60;99.90;;;;;;4857214;28;20182;-78
2021/04/16 07:24:19;;;;;;;7.47;5.90;;;3.50;99.90;;;;;;4857634;28;20640;-73
2021/04/16 07:26:44;;;;;;;6.47;5.70;;;3.60;1.00;;;;;;4857076;28;20291;-77
2021/04/16 07:29:08;;;;;;;5.43;4.93;;;3.60;1.00;;;;;;4857217;28;20201;-75
2021/04/16 07:31:42;;;;;;;6.27;5.63;;;3.60;1.00;;;;;;4857504;28;20182;-76
2021/04/16 07:34:06;;;;;;;6.80;5.77;;;3.60;1.00;;;;;;4855693;28;20268;-76
2021/04/16 07:36:35;;;;;;;6.90;6.20;;;3.70;1.00;;;;;;4857491;28;20240;-76
2021/04/16 07:38:59;;;;;;;5.97;5.33;;;3.70;1.00;;;;;;4857263;28;20584;-75
2021/04/16 07:41:25;;;;;;;7.03;6.33;;;3.70;1.00;;;;;;4857492;28;20248;-75
2021/04/16 07:43:50;;;;;;;6.23;5.63;;;3.70;1.00;;;;;;4856903;28;20988;-75
2021/04/16 07:46:30;;;;;;;6.63;6.00;;;3.70;1.00;;;;;;4857381;28;20190;-76
2021/04/16 07:48:53;;;;;;;6.40;5.60;;;;;;;;;;4856986;28;20224;-76
2021/04/16 07:51:29;;;;;;;6.17;5.57;;;3.70;99.90;;;;;;4857503;28;20198;-76
2021/04/16 07:53:52;;;;;;;6.10;5.50;;;;;;;;;;4857176;28;20178;-73
2021/04/16 07:56:21;;;;;;;6.47;5.80;;;3.80;1.00;;;;;;4857202;28;20613;-75
2021/04/16 07:58:44;;;;;;;6.47;5.57;;;3.80;99.90;;;;;;4857341;28;20186;-75
2021/04/16 08:01:17;;;;;;;5.43;4.90;;;3.80;99.90;;;;;;4854406;28;20198;-76
2021/04/16 08:03:46;;;;;;;5.43;4.93;;;3.80;99.90;;;;;;4860782;28;20577;-73
2021/04/16 08:06:25;;;;;;;5.77;5.17;;;3.70;99.90;;;;;;4860941;28;20651;-75
2021/04/16 08:08:47;;;;;;;6.10;5.10;;;;;;;;;;4860835;28;20821;-76
2021/04/16 08:11:15;;;;;;;5.60;5.10;;;3.70;99.90;;;;;;4860968;28;20241;-74
2021/04/16 08:13:51;;;;;;;5.50;5.00;;;3.70;99.90;;;;;;4860964;28;20672;-75
2021/04/16 08:16:16;;;;;;;5.73;5.23;;;3.70;99.90;;;;;;4860835;28;20178;-75
2021/04/16 08:18:40;;;;;;;6.10;5.50;;;3.70;99.90;;;;;;4860780;28;20190;-75
2021/04/16 08:21:07;;;;;;;5.50;4.97;;;3.70;1.00;;;;;;4860508;28;20244;-75
2021/04/16 08:23:39;;;;;;;5.87;5.30;;;3.70;1.00;;;;;;4860646;28;20221;-74
2021/04/16 08:26:01;;;;;;;5.37;4.70;;;;;;;;;;4860539;28;20236;-74
2021/04/16 08:28:52;;;;;;;6.80;5.63;;;3.70;1.00;;;;;;4837724;28;20230;-75
2021/04/16 08:31:44;;;;;;;8.47;6.87;;;3.70;1.00;;;;;;4837707;28;20276;-74
2021/04/16 08:34:39;;;;;;;6.60;5.93;;;3.80;1.00;;;;;;4838047;28;20269;-75
2021/04/16 08:37:30;;;;;;;7.60;6.57;;;3.80;1.00;;;;;;4837502;28;20218;-74
2021/04/16 08:40:26;;;;;;;7.77;6.40;;;3.80;1.00;;;;;;4838064;28;20214;-75
2021/04/16 08:43:21;;;;;;;7.03;6.33;;;3.90;1.00;;;;;;4838101;28;20248;-74
2021/04/16 08:46:23;;;;;;;6.83;6.13;;;3.90;1.00;;;;;;4837782;28;20771;-75
2021/04/16 08:49:17;;;;;;;8.20;6.50;;;4.00;1.00;;;;;;4837737;28;20284;-74
2021/04/16 08:52:07;;;;;;;6.57;5.53;;;4.10;1.00;;;;;;4837379;28;20290;-74
2021/04/16 08:55:07;;;;;;;7.67;6.20;;;4.10;1.00;;;;;;4837819;28;20210;-75
2021/04/16 08:57:58;;;;;;;7.10;5.97;;;4.10;1.00;;;;;;4837461;28;20210;-74
2021/04/16 09:00:50;;;;;;;6.63;5.97;;;4.10;1.00;;;;;;4835508;28;20223;-74
2021/04/16 09:03:43;;;;;;;7.97;6.07;;;4.10;1.00;;;;;;4837331;28;20688;-74
2021/04/16 09:06:47;;;;;;;5.97;5.37;;;4.20;1.00;;;;;;4837519;28;20281;-74
2021/04/16 09:09:47;;;;;;;6.67;5.60;;;4.20;1.00;;;;;;4837328;28;20305;-74
2021/04/16 09:12:47;;;;;;;6.73;6.00;;;4.20;1.00;;;;;;4836837;28;20264;-75
2021/04/16 09:15:45;;;;;;;6.53;5.90;;;4.20;99.90;;;;;;4837348;28;20264;-75
2021/04/16 09:18:33;;;;;;;5.97;5.37;;;;;;;;;;4837196;28;20273;-76
2021/04/16 09:21:26;;;;;;;5.80;5.20;;;4.30;99.90;;;;;;4837232;28;20211;-75
2021/04/16 09:24:14;;;;;;;5.70;5.13;;;;;;;;;;4837311;28;20276;-75
2021/04/16 09:27:03;;;;;;;6.27;5.40;;;4.10;99.90;;;;;;4837043;28;20272;-75
2021/04/16 09:29:51;;;;;;;7.00;5.83;;;;;;;;;;4836785;28;20592;-76
2021/04/16 09:32:46;;;;;;;6.70;5.97;;;4.20;99.90;;;;;;4836760;28;20613;-74
2021/04/16 09:35:57;;;;;;;9.73;8.03;;;4.20;1.00;;;;;;4837091;28;20736;-75
2021/04/16 09:39:11;;;;;;;7.33;6.20;;;4.20;1.00;;;;;;4836431;28;20261;-76
2021/04/16 09:41:58;;;;;;;6.43;5.77;;;;;;;;;;4836363;28;20272;-76
2021/04/16 09:44:55;;;;;;;6.03;5.10;;;4.20;1.00;;;;;;4836814;28;20218;-76
2021/04/16 09:47:53;;;;;;;6.70;6.10;;;4.10;1.00;;;;;;4836755;28;20265;-76
2021/04/16 09:50:41;;;;;;;7.80;6.10;;;4.20;1.00;;;;;;4836549;28;20280;-76
2021/04/16 09:53:30;;;;;;;7.40;6.00;;;4.30;1.00;;;;;;4836746;28;20265;-75
2021/04/16 09:56:19;;;;;;;6.70;5.50;;;4.30;1.00;;;;;;4836351;28;20269;-76
2021/04/16 09:59:08;;;;;;;4.93;4.40;;;;;;;;;;4836250;28;20626;-75
2021/04/16 10:02:31;;;;;;;5.40;4.90;;;4.40;1.00;;;;;;4834567;28;20210;-76
2021/04/16 10:05:34;;;;;;;5.90;5.17;;;4.40;1.00;;;;;;4836083;28;20773;-75
2021/04/16 10:08:26;;;;;;;5.30;4.80;;;4.40;1.00;;;;;;4836097;28;20268;-76
2021/04/16 10:11:17;;;;;;;5.03;4.53;;;4.40;1.00;;;;;;4836464;28;20238;-75
2021/04/16 10:14:21;;;;;;;5.63;5.03;;;4.40;1.00;;;;;;4836060;28;20270;-75
2021/04/16 10:17:18;;;;;;;5.73;5.17;;;4.50;1.00;;;;;;4836163;28;20244;-76
2021/04/16 10:20:12;;;;;;;5.60;5.00;;;4.50;1.00;;;;;;4816940;28;20215;-75
2021/04/16 10:23:04;;;;;;;4.77;4.37;;;4.60;1.00;;;;;;4827672;28;20238;-76
2021/04/16 12:40:17;;;;;;;5.97;5.47;;;5.50;1.00;;;;;;4830412;28;20222;-75
2021/04/16 12:42:39;;;;;;;6.10;5.50;;;5.50;1.00;;;;;;4835972;28;20183;-78
2021/04/16 12:45:01;;;;;;;5.43;5.00;;;;;;;;;;4818351;28;20195;-75
2021/04/16 12:47:26;;;;;;;5.23;4.73;;;5.10;1.00;;;;;;4833407;28;20191;-77
2021/04/16 12:49:48;;;;;;;5.20;4.70;;;5.40;36.40;;;;;;4837271;28;20619;-73
2021/04/16 12:52:13;;;;;;;5.47;4.97;;;4.90;99.90;;;;;;4833311;28;20195;-74
2021/04/16 12:54:38;;;;;;;4.90;4.50;;;5.40;99.90;;;;;;4835575;28;20288;-73
2021/04/16 12:57:00;;;;;;;5.57;4.87;;;5.30;99.90;;;;;;4827567;28;20408;-74
2021/04/16 12:59:24;;;;;;;4.20;3.90;;;5.50;99.90;;;;;;4837668;28;20260;-75
2021/04/16 13:01:49;;;;;;;5.13;4.70;;;5.30;99.90;;;;;;4849704;28;20568;-75
2021/04/16 13:04:13;;;;;;;3.67;3.37;;;5.50;99.90;;;;;;4834898;28;20573;-74
2021/04/16 13:06:38;;;;;;;5.07;4.60;;;5.40;80.60;;;;;;4840070;28;20571;-74
2021/04/16 13:09:02;;;;;;;5.07;4.67;;;5.50;99.90;;;;;;4838291;28;20190;-74
2021/04/16 13:11:24;;;;;;;4.73;4.33;;;5.50;99.90;;;;;;4805448;28;20227;-73
2021/04/16 13:13:46;;;;;;;4.70;4.30;;;5.50;99.90;;;;;;4839150;28;20218;-75
2021/04/16 13:16:10;;;;;;;4.33;3.97;;;5.50;1.00;;;;;;4835233;28;20206;-75
2021/04/16 13:18:34;;;;;;;4.07;3.73;;;5.40;1.00;;;;;;4830860;28;20230;-75
2021/04/16 13:20:57;;;;;;;5.30;4.80;;;5.50;1.00;;;;;;4839168;28;20182;-77
2021/04/16 13:23:19;;;;;;;4.63;4.23;;;5.50;99.90;;;;;;4839404;28;20198;-75
2021/04/16 13:25:42;;;;;;;4.73;4.27;;;5.50;99.90;;;;;;4839649;28;20607;-73
2021/04/16 13:28:05;;;;;;;4.80;4.30;;;5.70;1.00;;;;;;4837316;28;20202;-83
2021/04/16 13:30:29;;;;;;;4.47;4.07;;;5.50;99.90;;;;;;4837114;28;20223;-74
2021/04/16 13:32:55;;;;;;;5.43;4.93;;;5.60;1.00;;;;;;4840885;28;20217;-81
2021/04/16 13:35:21;;;;;;;4.83;4.30;;;5.60;1.00;;;;;;4825109;28;20195;-74
2021/04/16 13:37:44;;;;;;;5.40;4.90;;;5.50;28.60;;;;;;4829801;28;20272;-77
2021/04/16 13:40:08;;;;;;;5.00;4.50;;;5.60;99.90;;;;;;4830082;28;20226;-76
2021/04/16 13:42:31;;;;;;;4.17;3.87;;;5.50;1.00;;;;;;4834891;28;20221;-73
2021/04/16 13:44:55;;;;;;;5.77;5.27;;;5.50;1.00;;;;;;4854679;28;20186;-76
2021/04/16 13:47:20;;;;;;;5.40;4.90;;;5.60;1.00;;;;;;4837055;28;20240;-75
2021/04/16 13:49:42;;;;;;;5.27;4.80;;;5.50;1.00;;;;;;4820750;28;20195;-74
2021/04/16 13:52:05;;;;;;;4.20;3.90;;;5.50;1.00;;;;;;4837466;28;20257;-74
2021/04/16 13:54:28;;;;;;;5.60;5.00;;;5.60;1.00;;;;;;4821071;28;20203;-75
2021/04/16 13:56:52;;;;;;;5.77;5.20;;;5.50;37.60;;;;;;4851756;28;20229;-74
2021/04/16 13:59:15;;;;;;;5.73;5.23;;;5.50;1.00;;;;;;4819993;28;20195;-73
2021/04/16 14:01:39;;;;;;;6.43;5.60;;;5.50;1.00;;;;;;4823524;28;20215;-76
2021/04/16 14:04:04;;;;;;;6.23;5.60;;;5.50;99.90;;;;;;4817325;28;20321;-76
2021/04/16 14:06:29;;;;;;;6.10;5.50;;;5.40;99.90;;;;;;4832472;28;20198;-76
2021/04/16 14:08:53;;;;;;;6.23;5.40;;;5.40;99.90;;;;;;4818159;28;20201;-75
2021/04/16 14:11:16;;;;;;;5.13;4.60;;;;;;;;;;4851765;28;20577;-74
2021/04/16 14:13:38;;;;;;;5.60;5.10;;;5.80;1.00;;;;;;4803735;28;20230;-74
2021/04/16 14:16:05;;;;;;;6.60;5.90;;;5.30;1.00;;;;;;4853109;28;20192;-76
2021/04/16 14:18:31;;;;;;;8.97;5.77;;;5.30;53.10;;;;;;4821113;28;20560;-75
2021/04/16 14:20:53;;;;;;;8.00;6.27;;;5.30;99.90;;;;;;4820546;28;20557;-73
2021/04/16 14:23:15;;;;;;;7.70;6.23;;;;;;;;;;4837298;28;20199;-76
2021/04/16 14:25:40;;;;;;;6.90;5.87;;;5.20;1.00;;;;;;4837621;28;20206;-74
2021/04/16 14:28:04;;;;;;;6.33;5.73;;;5.20;1.00;;;;;;4819457;28;20719;-75
2021/04/16 14:30:28;;;;;;;6.83;6.23;;;5.20;1.00;;;;;;4823951;28;20230;-77
2021/04/16 14:32:53;;;;;;;6.83;6.17;;;4.90;1.00;;;;;;4837885;28;20215;-79
2021/04/16 14:35:15;;;;;;;6.30;5.53;;;;;;;;;;4822892;28;20203;-76
2021/04/16 14:37:37;;;;;;;6.13;5.53;;;5.10;1.00;;;;;;4836156;28;20205;-75
2021/04/16 14:40:00;;;;;;;6.73;6.03;;;;;;;;;;4832156;28;20697;-76
2021/04/16 14:42:23;;;;;;;6.13;5.27;;;5.10;1.00;;;;;;4817182;28;20205;-82
2021/04/16 14:44:45;;;;;;;8.03;5.97;;;;;;;;;;4850567;28;20548;-77
2021/04/16 14:47:07;;;;;;;6.13;5.53;;;5.20;1.00;;;;;;4815785;28;20203;-77
2021/04/16 14:49:32;;;;;;;6.10;5.50;;;5.10;1.00;;;;;;4836080;28;20296;-74
2021/04/16 14:51:55;;;;;;;5.63;5.13;;;5.10;1.00;;;;;;4835787;28;20249;-75
2021/04/16 14:54:23;;;;;;;5.67;5.13;;;5.10;1.00;;;;;;4806110;28;20207;-75
2021/04/16 14:56:58;;;;;;;6.93;6.23;;;5.00;1.00;;;;;;4835643;28;20220;-77
2021/04/16 14:59:24;;;;;;;7.57;6.77;;;4.90;1.00;;;;;;4825301;28;20549;-77
2021/04/16 15:01:49;;;;;;;8.57;7.70;;;7.10;1.00;;;;;;4818256;28;20717;-80
2021/04/16 15:04:13;;;;;;;7.20;6.50;;;5.20;1.00;;;;;;4846418;28;20253;-78
2021/04/16 15:06:39;;;;;;;6.00;5.50;;;5.00;1.00;;;;;;4829077;28;20203;-76
2021/04/16 15:09:06;;;;;;;6.83;6.13;;;5.00;1.00;;;;;;4819482;28;20206;-80
2021/04/16 15:11:38;;;;;;;7.00;6.40;;;4.90;1.00;;;;;;4832119;28;20249;-82
2021/04/16 15:14:00;;;;;;;6.67;6.07;;;4.90;1.00;;;;;;4824680;28;20954;-75
2021/04/16 15:16:22;;;;;;;6.93;6.10;;;;;;;;;;4836445;28;20237;-77
2021/04/16 15:18:47;;;;;;;7.63;6.57;;;5.30;1.00;;;;;;4835893;28;20241;-76
2021/04/16 15:21:13;;;;;;;7.60;6.83;;;4.90;1.00;;;;;;4833459;28;20257;-76
2021/04/16 15:23:37;;;;;;;6.80;6.20;;;4.80;1.00;;;;;;4836317;28;20198;-74
2021/04/16 15:26:01;;;;;;;7.37;6.67;;;4.90;1.00;;;;;;4806592;28;20203;-76
2021/04/16 15:28:27;;;;;;;6.87;6.20;;;4.80;1.00;;;;;;4819331;28;20191;-81
2021/04/16 15:30:54;;;;;;;7.57;6.87;;;4.80;1.00;;;;;;4810906;28;20269;-81
2021/04/16 15:33:20;;;;;;;8.13;7.07;;;4.80;1.00;;;;;;4801652;28;20200;-79
2021/04/16 15:46:42;;;;;;;8.23;7.37;;;4.70;1.00;;;;;;4833233;28;20564;-81
2021/04/16 15:49:08;;;;;;;7.57;6.77;;;4.80;1.00;;;;;;4836167;28;20198;-77
2021/04/16 15:51:33;;;;;;;7.37;6.23;;;5.20;1.00;;;;;;4848635;28;20264;-88
2021/04/16 15:53:57;;;;;;;8.07;7.20;;;4.60;1.00;;;;;;4836226;28;20305;-76
2021/04/16 15:56:24;;;;;;;6.70;6.10;;;5.20;1.00;;;;;;4836524;28;20194;-78
2021/04/16 15:58:47;;;;;;;7.20;6.50;;;4.60;1.00;;;;;;4833601;28;20210;-81
2021/04/16 16:01:13;;;;;;;8.20;7.40;;;4.70;1.00;;;;;;4834912;28;20191;-75